sensor_id;sensor_type;location;lat;lon;timestamp;temperature;humidity
70269;DHT22;58514;48.398;-4.274;2022-10-18T00:01:30;15.40;99.90
70269;DHT22;58514;48.398;-4.274;2022-10-18T00:03:56;15.40;99.90
70269;DHT22;58514;48.398;-4.274;2022-10-18T00:06:21;15.30;99.90
70269;DHT22;58514;48.398;-4.274;2022-10-18T00:08:47;15.40;99.90
70269;DHT22;58514;48.398;-4.274;2022-10-18T00:11:12;15.30;99.90
70269;DHT22;58514;48.398;-4.274;2022-10-18T00:13:38;15.30;99.90
70269;DHT22;58514;48.398;-4.274;2022-10-18T00:16:04;15.40;99.90
70269;DHT22;58514;48.398;-4.274;2022-10-18T00:18:33;15.30;99.90
70269;DHT22;58514;48.398;-4.274;2022-10-18T00:21:06;15.30;99.90
70269;DHT22;58514;48.398;-4.274;2022-10-18T00:23:32;15.30;99.90
70269;DHT22;58514;48.398;-4.274;2022-10-18T00:28:26;15.30;99.90
70269;DHT22;58514;48.398;-4.274;2022-10-18T00:30:52;15.30;99.90
70269;DHT22;58514;48.398;-4.274;2022-10-18T00:33:17;15.20;99.90
70269;DHT22;58514;48.398;-4.274;2022-10-18T00:35:43;15.20;99.90
70269;DHT22;58514;48.398;-4.274;2022-10-18T00:38:08;15.20;99.90
70269;DHT22;58514;48.398;-4.274;2022-10-18T00:40:34;15.20;99.90
70269;DHT22;58514;48.398;-4.274;2022-10-18T00:42:59;15.20;99.90
70269;DHT22;58514;48.398;-4.274;2022-10-18T00:45:25;15.30;99.90
70269;DHT22;58514;48.398;-4.274;2022-10-18T00:47:52;15.30;99.90
70269;DHT22;58514;48.398;-4.274;2022-10-18T00:50:18;15.30;99.90
70269;DHT22;58514;48.398;-4.274;2022-10-18T00:52:47;15.20;99.90
70269;DHT22;58514;48.398;-4.274;2022-10-18T00:55:13;15.20;99.90
70269;DHT22;58514;48.398;-4.274;2022-10-18T00:57:39;15.30;99.90
70269;DHT22;58514;48.398;-4.274;2022-10-18T01:00:06;15.20;99.90
70269;DHT22;58514;48.398;-4.274;2022-10-18T01:02:37;15.20;99.90
70269;DHT22;58514;48.398;-4.274;2022-10-18T01:05:04;15.20;99.90
70269;DHT22;58514;48.398;-4.274;2022-10-18T01:23:06;15.10;99.90
70269;DHT22;58514;48.398;-4.274;2022-10-18T01:32:57;15.00;99.90
70269;DHT22;58514;48.398;-4.274;2022-10-18T01:35:26;14.90;99.90
70269;DHT22;58514;48.398;-4.274;2022-10-18T01:37:53;14.90;99.90
70269;DHT22;58514;48.398;-4.274;2022-10-18T01:40:20;14.90;99.90
70269;DHT22;58514;48.398;-4.274;2022-10-18T01:42:46;14.90;99.90
70269;DHT22;58514;48.398;-4.274;2022-10-18T01:45:13;14.90;99.90
70269;DHT22;58514;48.398;-4.274;2022-10-18T01:47:40;14.90;99.90
70269;DHT22;58514;48.398;-4.274;2022-10-18T01:50:07;14.90;99.90
70269;DHT22;58514;48.398;-4.274;2022-10-18T01:52:32;14.90;99.90
70269;DHT22;58514;48.398;-4.274;2022-10-18T01:54:58;14.90;99.90
70269;DHT22;58514;48.398;-4.274;2022-10-18T02:02:47;14.90;99.90
70269;DHT22;58514;48.398;-4.274;2022-10-18T02:07:55;14.80;99.90
70269;DHT22;58514;48.398;-4.274;2022-10-18T02:10:31;14.80;99.90
70269;DHT22;58514;48.398;-4.274;2022-10-18T02:12:58;14.80;99.90
70269;DHT22;58514;48.398;-4.274;2022-10-18T02:15:33;14.80;99.90
70269;DHT22;58514;48.398;-4.274;2022-10-18T02:18:00;14.80;99.90
70269;DHT22;58514;48.398;-4.274;2022-10-18T02:20:27;14.80;99.90
70269;DHT22;58514;48.398;-4.274;2022-10-18T02:22:54;14.80;99.90
70269;DHT22;58514;48.398;-4.274;2022-10-18T02:25:22;14.80;99.90
70269;DHT22;58514;48.398;-4.274;2022-10-18T02:27:48;14.80;99.90
70269;DHT22;58514;48.398;-4.274;2022-10-18T02:30:14;14.70;99.90
70269;DHT22;58514;48.398;-4.274;2022-10-18T02:32:41;14.70;99.90
70269;DHT22;58514;48.398;-4.274;2022-10-18T02:35:10;14.80;99.90
70269;DHT22;58514;48.398;-4.274;2022-10-18T02:37:39;14.80;99.90
70269;DHT22;58514;48.398;-4.274;2022-10-18T02:40:06;14.80;99.90
70269;DHT22;58514;48.398;-4.274;2022-10-18T02:42:33;14.80;99.90
70269;DHT22;58514;48.398;-4.274;2022-10-18T02:44:59;14.70;99.90
70269;DHT22;58514;48.398;-4.274;2022-10-18T02:47:25;14.70;99.90
70269;DHT22;58514;48.398;-4.274;2022-10-18T02:49:50;14.70;99.90
70269;DHT22;58514;48.398;-4.274;2022-10-18T02:52:16;14.70;99.90
70269;DHT22;58514;48.398;-4.274;2022-10-18T02:54:41;14.70;99.90
70269;DHT22;58514;48.398;-4.274;2022-10-18T02:57:07;14.70;99.90
70269;DHT22;58514;48.398;-4.274;2022-10-18T02:59:32;14.70;99.90
70269;DHT22;58514;48.398;-4.274;2022-10-18T03:01:58;14.70;99.90
70269;DHT22;58514;48.398;-4.274;2022-10-18T03:04:24;14.70;99.90
70269;DHT22;58514;48.398;-4.274;2022-10-18T03:06:49;14.60;99.90
70269;DHT22;58514;48.398;-4.274;2022-10-18T03:09:15;14.60;99.90
70269;DHT22;58514;48.398;-4.274;2022-10-18T03:11:40;14.70;99.90
70269;DHT22;58514;48.398;-4.274;2022-10-18T03:14:06;14.60;99.90
70269;DHT22;58514;48.398;-4.274;2022-10-18T03:16:31;14.60;99.90
70269;DHT22;58514;48.398;-4.274;2022-10-18T03:18:58;14.60;99.90
70269;DHT22;58514;48.398;-4.274;2022-10-18T03:21:23;14.60;99.90
70269;DHT22;58514;48.398;-4.274;2022-10-18T03:23:49;14.60;99.90
70269;DHT22;58514;48.398;-4.274;2022-10-18T03:26:15;14.60;99.90
70269;DHT22;58514;48.398;-4.274;2022-10-18T03:28:40;14.50;99.90
70269;DHT22;58514;48.398;-4.274;2022-10-18T03:31:06;14.50;99.90
70269;DHT22;58514;48.398;-4.274;2022-10-18T03:33:32;14.50;99.90
70269;DHT22;58514;48.398;-4.274;2022-10-18T03:35:57;14.60;99.90
70269;DHT22;58514;48.398;-4.274;2022-10-18T03:38:23;14.50;99.90
70269;DHT22;58514;48.398;-4.274;2022-10-18T03:40:49;14.50;99.90
70269;DHT22;58514;48.398;-4.274;2022-10-18T03:43:14;14.50;99.90
70269;DHT22;58514;48.398;-4.274;2022-10-18T03:45:40;14.50;99.90
70269;DHT22;58514;48.398;-4.274;2022-10-18T03:48:05;14.50;99.90
70269;DHT22;58514;48.398;-4.274;2022-10-18T03:50:31;14.50;99.90
70269;DHT22;58514;48.398;-4.274;2022-10-18T03:52:57;14.50;99.90
70269;DHT22;58514;48.398;-4.274;2022-10-18T03:55:22;14.50;99.90
70269;DHT22;58514;48.398;-4.274;2022-10-18T03:57:48;14.50;99.90
70269;DHT22;58514;48.398;-4.274;2022-10-18T04:00:14;14.50;99.90
70269;DHT22;58514;48.398;-4.274;2022-10-18T04:02:39;14.50;99.90
70269;DHT22;58514;48.398;-4.274;2022-10-18T04:05:05;14.50;99.90
70269;DHT22;58514;48.398;-4.274;2022-10-18T04:07:32;14.50;99.90
70269;DHT22;58514;48.398;-4.274;2022-10-18T04:09:57;14.50;99.90
70269;DHT22;58514;48.398;-4.274;2022-10-18T04:12:23;14.50;99.90
70269;DHT22;58514;48.398;-4.274;2022-10-18T04:14:48;14.50;99.90
70269;DHT22;58514;48.398;-4.274;2022-10-18T04:17:14;14.50;99.90
70269;DHT22;58514;48.398;-4.274;2022-10-18T04:19:39;14.50;99.90
70269;DHT22;58514;48.398;-4.274;2022-10-18T04:22:06;14.50;99.90
70269;DHT22;58514;48.398;-4.274;2022-10-18T04:24:31;14.50;99.90
70269;DHT22;58514;48.398;-4.274;2022-10-18T04:26:57;14.50;99.90
70269;DHT22;58514;48.398;-4.274;2022-10-18T04:29:22;14.50;99.90
70269;DHT22;58514;48.398;-4.274;2022-10-18T04:31:48;14.60;99.90
70269;DHT22;58514;48.398;-4.274;2022-10-18T04:34:13;14.60;99.90
70269;DHT22;58514;48.398;-4.274;2022-10-18T04:36:39;14.60;99.90
70269;DHT22;58514;48.398;-4.274;2022-10-18T04:39:04;14.60;99.90
70269;DHT22;58514;48.398;-4.274;2022-10-18T04:41:30;14.60;99.90
70269;DHT22;58514;48.398;-4.274;2022-10-18T04:43:56;14.60;99.90
70269;DHT22;58514;48.398;-4.274;2022-10-18T04:46:21;14.60;99.90
70269;DHT22;58514;48.398;-4.274;2022-10-18T04:48:47;14.60;99.90
70269;DHT22;58514;48.398;-4.274;2022-10-18T04:51:12;14.60;99.90
70269;DHT22;58514;48.398;-4.274;2022-10-18T04:53:38;14.60;99.90
70269;DHT22;58514;48.398;-4.274;2022-10-18T04:56:03;14.60;99.90
70269;DHT22;58514;48.398;-4.274;2022-10-18T04:58:29;14.60;99.90
70269;DHT22;58514;48.398;-4.274;2022-10-18T05:00:55;14.60;99.90
70269;DHT22;58514;48.398;-4.274;2022-10-18T05:03:20;14.60;99.90
70269;DHT22;58514;48.398;-4.274;2022-10-18T05:05:46;14.60;99.90
70269;DHT22;58514;48.398;-4.274;2022-10-18T05:08:11;14.60;99.90
70269;DHT22;58514;48.398;-4.274;2022-10-18T05:10:37;14.60;99.90
70269;DHT22;58514;48.398;-4.274;2022-10-18T05:13:02;14.60;99.90
70269;DHT22;58514;48.398;-4.274;2022-10-18T05:15:28;14.60;99.90
70269;DHT22;58514;48.398;-4.274;2022-10-18T05:17:54;14.50;99.90
70269;DHT22;58514;48.398;-4.274;2022-10-18T05:20:19;14.50;99.90
70269;DHT22;58514;48.398;-4.274;2022-10-18T05:22:45;14.60;99.90
70269;DHT22;58514;48.398;-4.274;2022-10-18T05:25:10;14.50;99.90
70269;DHT22;58514;48.398;-4.274;2022-10-18T05:27:36;14.60;99.90
70269;DHT22;58514;48.398;-4.274;2022-10-18T05:30:02;14.60;99.90
70269;DHT22;58514;48.398;-4.274;2022-10-18T05:32:28;14.60;99.90
70269;DHT22;58514;48.398;-4.274;2022-10-18T05:34:53;14.60;99.90
70269;DHT22;58514;48.398;-4.274;2022-10-18T05:37:19;14.60;99.90
70269;DHT22;58514;48.398;-4.274;2022-10-18T05:39:45;14.60;99.90
70269;DHT22;58514;48.398;-4.274;2022-10-18T05:42:11;14.60;99.90
70269;DHT22;58514;48.398;-4.274;2022-10-18T05:44:37;14.60;99.90
70269;DHT22;58514;48.398;-4.274;2022-10-18T05:47:02;14.70;99.90
70269;DHT22;58514;48.398;-4.274;2022-10-18T05:49:28;14.70;99.90
70269;DHT22;58514;48.398;-4.274;2022-10-18T05:51:53;14.70;99.90
70269;DHT22;58514;48.398;-4.274;2022-10-18T05:54:19;14.70;99.90
70269;DHT22;58514;48.398;-4.274;2022-10-18T05:56:45;14.70;99.90
70269;DHT22;58514;48.398;-4.274;2022-10-18T05:59:11;14.70;99.90
70269;DHT22;58514;48.398;-4.274;2022-10-18T06:01:40;14.70;99.90
70269;DHT22;58514;48.398;-4.274;2022-10-18T06:04:06;14.70;99.90
70269;DHT22;58514;48.398;-4.274;2022-10-18T06:06:32;14.70;99.90
70269;DHT22;58514;48.398;-4.274;2022-10-18T06:08:58;14.60;99.90
70269;DHT22;58514;48.398;-4.274;2022-10-18T06:11:24;14.60;99.90
70269;DHT22;58514;48.398;-4.274;2022-10-18T06:13:50;14.70;99.90
70269;DHT22;58514;48.398;-4.274;2022-10-18T06:16:16;14.70;99.90
70269;DHT22;58514;48.398;-4.274;2022-10-18T06:18:42;14.60;99.90
70269;DHT22;58514;48.398;-4.274;2022-10-18T06:21:08;14.60;99.90
70269;DHT22;58514;48.398;-4.274;2022-10-18T06:23:33;14.60;99.90
70269;DHT22;58514;48.398;-4.274;2022-10-18T06:26:03;14.60;99.90
70269;DHT22;58514;48.398;-4.274;2022-10-18T06:28:29;14.60;99.90
70269;DHT22;58514;48.398;-4.274;2022-10-18T06:30:58;14.60;99.90
70269;DHT22;58514;48.398;-4.274;2022-10-18T06:33:23;14.60;99.90
70269;DHT22;58514;48.398;-4.274;2022-10-18T06:35:53;14.70;99.90
70269;DHT22;58514;48.398;-4.274;2022-10-18T06:38:18;14.60;99.90
70269;DHT22;58514;48.398;-4.274;2022-10-18T06:40:46;14.70;99.90
70269;DHT22;58514;48.398;-4.274;2022-10-18T06:43:11;14.60;99.90
70269;DHT22;58514;48.398;-4.274;2022-10-18T06:45:37;14.70;99.90
70269;DHT22;58514;48.398;-4.274;2022-10-18T06:48:02;14.70;99.90
70269;DHT22;58514;48.398;-4.274;2022-10-18T06:50:28;14.70;99.90
70269;DHT22;58514;48.398;-4.274;2022-10-18T06:52:53;14.60;99.90
70269;DHT22;58514;48.398;-4.274;2022-10-18T06:55:19;14.60;99.90
70269;DHT22;58514;48.398;-4.274;2022-10-18T06:57:44;14.70;99.90
70269;DHT22;58514;48.398;-4.274;2022-10-18T07:00:10;14.70;99.90
70269;DHT22;58514;48.398;-4.274;2022-10-18T07:02:36;14.70;99.90
70269;DHT22;58514;48.398;-4.274;2022-10-18T07:05:08;14.70;99.90
70269;DHT22;58514;48.398;-4.274;2022-10-18T07:07:34;14.70;99.90
70269;DHT22;58514;48.398;-4.274;2022-10-18T07:10:00;14.70;99.90
70269;DHT22;58514;48.398;-4.274;2022-10-18T07:12:25;14.70;99.90
70269;DHT22;58514;48.398;-4.274;2022-10-18T07:14:51;14.70;99.90
70269;DHT22;58514;48.398;-4.274;2022-10-18T07:17:16;14.60;99.90
70269;DHT22;58514;48.398;-4.274;2022-10-18T07:19:42;14.70;99.90
70269;DHT22;58514;48.398;-4.274;2022-10-18T07:22:07;14.70;99.90
70269;DHT22;58514;48.398;-4.274;2022-10-18T07:24:33;14.70;99.90
70269;DHT22;58514;48.398;-4.274;2022-10-18T07:26:58;14.70;99.90
70269;DHT22;58514;48.398;-4.274;2022-10-18T07:29:24;14.70;99.90
70269;DHT22;58514;48.398;-4.274;2022-10-18T07:31:49;14.70;99.90
70269;DHT22;58514;48.398;-4.274;2022-10-18T07:34:15;14.70;99.90
70269;DHT22;58514;48.398;-4.274;2022-10-18T07:36:40;14.70;99.90
70269;DHT22;58514;48.398;-4.274;2022-10-18T07:39:06;14.80;99.90
70269;DHT22;58514;48.398;-4.274;2022-10-18T07:41:32;14.80;99.90
70269;DHT22;58514;48.398;-4.274;2022-10-18T07:43:58;14.80;99.90
70269;DHT22;58514;48.398;-4.274;2022-10-18T07:46:24;14.80;99.90
70269;DHT22;58514;48.398;-4.274;2022-10-18T07:48:50;14.90;99.90
70269;DHT22;58514;48.398;-4.274;2022-10-18T07:51:16;14.90;99.90
70269;DHT22;58514;48.398;-4.274;2022-10-18T07:53:41;14.90;99.90
70269;DHT22;58514;48.398;-4.274;2022-10-18T07:56:08;14.90;99.90
70269;DHT22;58514;48.398;-4.274;2022-10-18T07:58:40;15.00;99.90
70269;DHT22;58514;48.398;-4.274;2022-10-18T08:01:06;15.00;99.90
70269;DHT22;58514;48.398;-4.274;2022-10-18T08:03:32;15.00;99.90
70269;DHT22;58514;48.398;-4.274;2022-10-18T08:05:57;15.10;99.90
70269;DHT22;58514;48.398;-4.274;2022-10-18T08:08:23;15.30;99.90
70269;DHT22;58514;48.398;-4.274;2022-10-18T08:10:49;15.50;99.90
70269;DHT22;58514;48.398;-4.274;2022-10-18T08:13:15;15.60;99.90
70269;DHT22;58514;48.398;-4.274;2022-10-18T08:15:41;15.80;99.90
70269;DHT22;58514;48.398;-4.274;2022-10-18T08:18:06;15.80;99.90
70269;DHT22;58514;48.398;-4.274;2022-10-18T08:20:32;15.90;99.90
70269;DHT22;58514;48.398;-4.274;2022-10-18T08:22:58;15.90;99.90
70269;DHT22;58514;48.398;-4.274;2022-10-18T08:25:23;15.90;99.90
70269;DHT22;58514;48.398;-4.274;2022-10-18T08:27:49;16.00;99.90
70269;DHT22;58514;48.398;-4.274;2022-10-18T08:30:15;16.00;99.90
70269;DHT22;58514;48.398;-4.274;2022-10-18T08:32:40;16.10;99.90
70269;DHT22;58514;48.398;-4.274;2022-10-18T08:35:06;16.20;99.90
70269;DHT22;58514;48.398;-4.274;2022-10-18T08:37:32;16.20;99.90
70269;DHT22;58514;48.398;-4.274;2022-10-18T08:39:57;16.40;99.90
70269;DHT22;58514;48.398;-4.274;2022-10-18T08:42:31;16.50;99.90
70269;DHT22;58514;48.398;-4.274;2022-10-18T08:44:58;16.70;99.90
70269;DHT22;58514;48.398;-4.274;2022-10-18T08:47:57;16.90;99.90
70269;DHT22;58514;48.398;-4.274;2022-10-18T08:50:21;17.10;99.90
70269;DHT22;58514;48.398;-4.274;2022-10-18T08:52:49;17.40;99.90
70269;DHT22;58514;48.398;-4.274;2022-10-18T08:57:51;17.80;99.90
70269;DHT22;58514;48.398;-4.274;2022-10-18T09:00:19;17.90;99.90
70269;DHT22;58514;48.398;-4.274;2022-10-18T09:02:59;17.90;99.90
70269;DHT22;58514;48.398;-4.274;2022-10-18T09:05:49;17.90;99.90
70269;DHT22;58514;48.398;-4.274;2022-10-18T09:15:50;18.20;99.90
70269;DHT22;58514;48.398;-4.274;2022-10-18T09:20:50;18.20;99.90
70269;DHT22;58514;48.398;-4.274;2022-10-18T09:23:18;18.20;99.90
70269;DHT22;58514;48.398;-4.274;2022-10-18T09:25:48;18.20;99.90
70269;DHT22;58514;48.398;-4.274;2022-10-18T09:31:11;18.30;99.90
70269;DHT22;58514;48.398;-4.274;2022-10-18T09:36:19;18.30;99.90
70269;DHT22;58514;48.398;-4.274;2022-10-18T09:38:52;18.20;99.90
70269;DHT22;58514;48.398;-4.274;2022-10-18T09:43:58;18.30;99.90
70269;DHT22;58514;48.398;-4.274;2022-10-18T09:46:26;18.30;99.90
70269;DHT22;58514;48.398;-4.274;2022-10-18T09:48:59;18.20;99.90
70269;DHT22;58514;48.398;-4.274;2022-10-18T09:51:28;18.30;99.90
70269;DHT22;58514;48.398;-4.274;2022-10-18T09:56:54;18.30;99.90
70269;DHT22;58514;48.398;-4.274;2022-10-18T09:59:24;18.30;99.90
70269;DHT22;58514;48.398;-4.274;2022-10-18T10:01:52;18.40;99.90
70269;DHT22;58514;48.398;-4.274;2022-10-18T10:04:18;18.50;99.90
70269;DHT22;58514;48.398;-4.274;2022-10-18T10:06:50;18.50;99.90
70269;DHT22;58514;48.398;-4.274;2022-10-18T10:09:17;18.50;99.90
70269;DHT22;58514;48.398;-4.274;2022-10-18T10:11:49;18.60;99.90
70269;DHT22;58514;48.398;-4.274;2022-10-18T10:14:16;18.60;99.90
70269;DHT22;58514;48.398;-4.274;2022-10-18T10:17:27;18.70;99.90
70269;DHT22;58514;48.398;-4.274;2022-10-18T10:19:32;18.80;99.90
70269;DHT22;58514;48.398;-4.274;2022-10-18T10:22:01;18.90;99.90
70269;DHT22;58514;48.398;-4.274;2022-10-18T10:27:16;18.90;99.90
70269;DHT22;58514;48.398;-4.274;2022-10-18T10:32:11;18.90;99.90
70269;DHT22;58514;48.398;-4.274;2022-10-18T10:34:37;18.90;99.90
70269;DHT22;58514;48.398;-4.274;2022-10-18T10:37:08;18.90;99.90
70269;DHT22;58514;48.398;-4.274;2022-10-18T10:39:45;19.00;99.90
70269;DHT22;58514;48.398;-4.274;2022-10-18T10:42:28;19.10;99.90
70269;DHT22;58514;48.398;-4.274;2022-10-18T10:44:54;19.20;99.90
70269;DHT22;58514;48.398;-4.274;2022-10-18T10:47:30;19.30;99.90
70269;DHT22;58514;48.398;-4.274;2022-10-18T10:49:56;19.30;99.90
70269;DHT22;58514;48.398;-4.274;2022-10-18T10:52:23;19.30;99.90
70269;DHT22;58514;48.398;-4.274;2022-10-18T10:54:51;19.30;99.90
70269;DHT22;58514;48.398;-4.274;2022-10-18T10:57:18;19.30;99.90
70269;DHT22;58514;48.398;-4.274;2022-10-18T10:59:47;19.30;99.90
70269;DHT22;58514;48.398;-4.274;2022-10-18T11:04:40;19.30;99.90
70269;DHT22;58514;48.398;-4.274;2022-10-18T11:09:43;19.50;99.90
70269;DHT22;58514;48.398;-4.274;2022-10-18T11:12:20;19.60;99.90
70269;DHT22;58514;48.398;-4.274;2022-10-18T11:14:55;19.70;99.90
70269;DHT22;58514;48.398;-4.274;2022-10-18T11:23:05;20.40;99.90
70269;DHT22;58514;48.398;-4.274;2022-10-18T11:28:23;20.80;99.90
70269;DHT22;58514;48.398;-4.274;2022-10-18T11:33:46;20.90;99.90
70269;DHT22;58514;48.398;-4.274;2022-10-18T11:36:19;21.00;99.90
70269;DHT22;58514;48.398;-4.274;2022-10-18T11:41:30;21.40;99.90
70269;DHT22;58514;48.398;-4.274;2022-10-18T11:43:59;21.60;99.90
70269;DHT22;58514;48.398;-4.274;2022-10-18T11:51:34;22.30;99.90
70269;DHT22;58514;48.398;-4.274;2022-10-18T11:59:28;23.10;99.90
70269;DHT22;58514;48.398;-4.274;2022-10-18T12:02:01;23.30;99.90
70269;DHT22;58514;48.398;-4.274;2022-10-18T12:04:34;23.40;99.90
70269;DHT22;58514;48.398;-4.274;2022-10-18T12:07:00;23.50;99.90
70269;DHT22;58514;48.398;-4.274;2022-10-18T12:12:02;23.20;99.90
70269;DHT22;58514;48.398;-4.274;2022-10-18T12:14:29;23.10;99.90
70269;DHT22;58514;48.398;-4.274;2022-10-18T12:16:59;23.00;99.90
70269;DHT22;58514;48.398;-4.274;2022-10-18T12:19:27;22.80;99.90
70269;DHT22;58514;48.398;-4.274;2022-10-18T12:21:59;22.50;99.90
70269;DHT22;58514;48.398;-4.274;2022-10-18T12:24:27;22.30;99.90
70269;DHT22;58514;48.398;-4.274;2022-10-18T12:26:56;22.10;99.90
70269;DHT22;58514;48.398;-4.274;2022-10-18T12:29:35;21.90;99.90
70269;DHT22;58514;48.398;-4.274;2022-10-18T12:32:04;21.80;99.90
70269;DHT22;58514;48.398;-4.274;2022-10-18T12:39:48;21.50;99.90
70269;DHT22;58514;48.398;-4.274;2022-10-18T12:42:39;21.30;99.90
70269;DHT22;58514;48.398;-4.274;2022-10-18T12:47:30;21.20;99.90
70269;DHT22;58514;48.398;-4.274;2022-10-18T12:49:57;21.10;99.90
70269;DHT22;58514;48.398;-4.274;2022-10-18T12:52:27;21.10;99.90
70269;DHT22;58514;48.398;-4.274;2022-10-18T13:13:27;21.00;99.90
70269;DHT22;58514;48.398;-4.274;2022-10-18T13:16:01;20.90;99.90
70269;DHT22;58514;48.398;-4.274;2022-10-18T13:27:00;20.80;99.90
70269;DHT22;58514;48.398;-4.274;2022-10-18T13:31:43;20.80;99.90
70269;DHT22;58514;48.398;-4.274;2022-10-18T13:37:05;20.80;99.90
70269;DHT22;58514;48.398;-4.274;2022-10-18T13:39:43;20.70;99.90
70269;DHT22;58514;48.398;-4.274;2022-10-18T13:44:40;20.80;99.90
70269;DHT22;58514;48.398;-4.274;2022-10-18T13:47:09;20.80;99.90
70269;DHT22;58514;48.398;-4.274;2022-10-18T13:52:15;20.70;99.90
70269;DHT22;58514;48.398;-4.274;2022-10-18T14:07:46;20.60;99.90
70269;DHT22;58514;48.398;-4.274;2022-10-18T14:10:19;20.60;99.90
70269;DHT22;58514;48.398;-4.274;2022-10-18T14:12:47;20.60;99.90
70269;DHT22;58514;48.398;-4.274;2022-10-18T14:17:49;20.60;99.90
70269;DHT22;58514;48.398;-4.274;2022-10-18T14:22:53;20.60;99.90
70269;DHT22;58514;48.398;-4.274;2022-10-18T14:25:26;20.60;99.90
70269;DHT22;58514;48.398;-4.274;2022-10-18T14:30:36;20.60;99.90
70269;DHT22;58514;48.398;-4.274;2022-10-18T14:33:02;20.60;99.90
70269;DHT22;58514;48.398;-4.274;2022-10-18T14:35:29;20.60;99.90
70269;DHT22;58514;48.398;-4.274;2022-10-18T14:37:55;20.60;99.90
70269;DHT22;58514;48.398;-4.274;2022-10-18T14:42:52;20.50;99.90
70269;DHT22;58514;48.398;-4.274;2022-10-18T14:45:18;20.50;99.90
70269;DHT22;58514;48.398;-4.274;2022-10-18T14:47:44;20.50;99.90
70269;DHT22;58514;48.398;-4.274;2022-10-18T14:50:19;20.50;99.90
70269;DHT22;58514;48.398;-4.274;2022-10-18T14:52:45;20.50;99.90
70269;DHT22;58514;48.398;-4.274;2022-10-18T14:55:15;20.60;99.90
70269;DHT22;58514;48.398;-4.274;2022-10-18T14:57:42;20.60;99.90
70269;DHT22;58514;48.398;-4.274;2022-10-18T15:00:13;20.60;99.90
70269;DHT22;58514;48.398;-4.274;2022-10-18T15:02:41;20.60;99.90
70269;DHT22;58514;48.398;-4.274;2022-10-18T15:07:35;20.70;99.90
70269;DHT22;58514;48.398;-4.274;2022-10-18T15:10:01;20.70;99.90
70269;DHT22;58514;48.398;-4.274;2022-10-18T15:12:28;20.80;99.90
70269;DHT22;58514;48.398;-4.274;2022-10-18T15:14:54;20.80;99.90
70269;DHT22;58514;48.398;-4.274;2022-10-18T15:17:24;20.70;99.90
70269;DHT22;58514;48.398;-4.274;2022-10-18T15:19:54;20.70;99.90
70269;DHT22;58514;48.398;-4.274;2022-10-18T15:22:24;20.80;99.90
70269;DHT22;58514;48.398;-4.274;2022-10-18T15:25:09;20.80;99.90
70269;DHT22;58514;48.398;-4.274;2022-10-18T15:27:36;20.80;99.90
70269;DHT22;58514;48.398;-4.274;2022-10-18T15:30:25;20.80;99.90
70269;DHT22;58514;48.398;-4.274;2022-10-18T15:32:58;20.70;99.90
70269;DHT22;58514;48.398;-4.274;2022-10-18T15:35:25;20.70;99.90
70269;DHT22;58514;48.398;-4.274;2022-10-18T15:37:52;20.70;99.90
70269;DHT22;58514;48.398;-4.274;2022-10-18T15:42:43;20.60;99.90
70269;DHT22;58514;48.398;-4.274;2022-10-18T15:47:59;20.60;99.90
70269;DHT22;58514;48.398;-4.274;2022-10-18T15:50:42;20.60;99.90
70269;DHT22;58514;48.398;-4.274;2022-10-18T15:55:56;20.50;99.90
70269;DHT22;58514;48.398;-4.274;2022-10-18T15:58:39;20.50;99.90
70269;DHT22;58514;48.398;-4.274;2022-10-18T16:01:15;20.40;99.90
70269;DHT22;58514;48.398;-4.274;2022-10-18T16:03:42;20.40;99.90
70269;DHT22;58514;48.398;-4.274;2022-10-18T16:06:08;20.40;99.90
70269;DHT22;58514;48.398;-4.274;2022-10-18T16:08:41;20.30;99.90
70269;DHT22;58514;48.398;-4.274;2022-10-18T16:11:14;20.30;99.90
70269;DHT22;58514;48.398;-4.274;2022-10-18T16:13:40;20.20;99.90
70269;DHT22;58514;48.398;-4.274;2022-10-18T16:16:08;20.20;99.90
70269;DHT22;58514;48.398;-4.274;2022-10-18T16:18:34;20.10;99.90
70269;DHT22;58514;48.398;-4.274;2022-10-18T16:21:00;20.00;99.90
70269;DHT22;58514;48.398;-4.274;2022-10-18T16:23:26;20.00;99.90
70269;DHT22;58514;48.398;-4.274;2022-10-18T16:25:54;20.00;99.90
70269;DHT22;58514;48.398;-4.274;2022-10-18T16:28:21;19.90;99.90
70269;DHT22;58514;48.398;-4.274;2022-10-18T16:30:51;19.90;99.90
70269;DHT22;58514;48.398;-4.274;2022-10-18T16:33:16;19.80;99.90
70269;DHT22;58514;48.398;-4.274;2022-10-18T16:35:42;19.80;99.90
70269;DHT22;58514;48.398;-4.274;2022-10-18T16:38:12;19.80;99.90
70269;DHT22;58514;48.398;-4.274;2022-10-18T16:40:38;19.70;99.90
70269;DHT22;58514;48.398;-4.274;2022-10-18T16:43:03;19.70;99.90
70269;DHT22;58514;48.398;-4.274;2022-10-18T16:45:29;19.60;99.90
70269;DHT22;58514;48.398;-4.274;2022-10-18T16:47:54;19.60;99.90
70269;DHT22;58514;48.398;-4.274;2022-10-18T16:50:20;19.60;99.90
70269;DHT22;58514;48.398;-4.274;2022-10-18T16:52:47;19.60;99.90
70269;DHT22;58514;48.398;-4.274;2022-10-18T16:55:12;19.60;99.90
70269;DHT22;58514;48.398;-4.274;2022-10-18T16:57:45;19.50;99.90
70269;DHT22;58514;48.398;-4.274;2022-10-18T17:00:15;19.50;99.90
70269;DHT22;58514;48.398;-4.274;2022-10-18T17:02:42;19.50;99.90
70269;DHT22;58514;48.398;-4.274;2022-10-18T17:05:08;19.40;99.90
70269;DHT22;58514;48.398;-4.274;2022-10-18T17:07:33;19.40;99.90
70269;DHT22;58514;48.398;-4.274;2022-10-18T17:09:59;19.40;99.90
70269;DHT22;58514;48.398;-4.274;2022-10-18T17:12:24;19.30;99.90
70269;DHT22;58514;48.398;-4.274;2022-10-18T17:14:50;19.40;99.90
70269;DHT22;58514;48.398;-4.274;2022-10-18T17:17:15;19.30;99.90
70269;DHT22;58514;48.398;-4.274;2022-10-18T17:19:41;19.20;99.90
70269;DHT22;58514;48.398;-4.274;2022-10-18T17:22:07;19.20;99.90
70269;DHT22;58514;48.398;-4.274;2022-10-18T17:24:33;19.20;99.90
70269;DHT22;58514;48.398;-4.274;2022-10-18T17:26:58;19.10;99.90
70269;DHT22;58514;48.398;-4.274;2022-10-18T17:29:24;19.10;99.90
70269;DHT22;58514;48.398;-4.274;2022-10-18T17:31:49;19.10;99.90
70269;DHT22;58514;48.398;-4.274;2022-10-18T17:34:15;19.00;99.90
70269;DHT22;58514;48.398;-4.274;2022-10-18T17:36:43;19.00;99.90
70269;DHT22;58514;48.398;-4.274;2022-10-18T17:39:08;18.90;99.90
70269;DHT22;58514;48.398;-4.274;2022-10-18T17:41:34;18.90;99.90
70269;DHT22;58514;48.398;-4.274;2022-10-18T17:44:01;18.90;99.90
70269;DHT22;58514;48.398;-4.274;2022-10-18T17:46:27;18.90;99.90
70269;DHT22;58514;48.398;-4.274;2022-10-18T17:48:52;18.80;99.90
70269;DHT22;58514;48.398;-4.274;2022-10-18T17:51:18;18.80;99.90
70269;DHT22;58514;48.398;-4.274;2022-10-18T17:53:43;18.80;99.90
70269;DHT22;58514;48.398;-4.274;2022-10-18T17:56:09;18.80;99.90
70269;DHT22;58514;48.398;-4.274;2022-10-18T17:58:35;18.80;99.90
70269;DHT22;58514;48.398;-4.274;2022-10-18T18:01:11;18.80;99.90
70269;DHT22;58514;48.398;-4.274;2022-10-18T18:03:37;18.70;99.90
70269;DHT22;58514;48.398;-4.274;2022-10-18T18:06:16;18.70;99.90
70269;DHT22;58514;48.398;-4.274;2022-10-18T18:08:42;18.70;99.90
70269;DHT22;58514;48.398;-4.274;2022-10-18T18:11:08;18.70;99.90